sensor_id;sensor_type;location;lat;lon;timestamp;P1;durP1;ratioP1;P2;durP2;ratioP2
42084;SDS011;27746;52.228;20.890;2023-04-24T00:02:01;16.73;;;9.68;;
42084;SDS011;27746;52.228;20.890;2023-04-24T00:04:29;12.02;;;7.93;;
42084;SDS011;27746;52.228;20.890;2023-04-24T00:06:56;12.88;;;8.48;;
42084;SDS011;27746;52.228;20.890;2023-04-24T00:09:25;14.18;;;8.18;;
42084;SDS011;27746;52.228;20.890;2023-04-24T00:11:52;14.43;;;8.43;;
42084;SDS011;27746;52.228;20.890;2023-04-24T00:14:19;13.75;;;8.52;;
42084;SDS011;27746;52.228;20.890;2023-04-24T00:16:47;16.98;;;8.38;;
42084;SDS011;27746;52.228;20.890;2023-04-24T00:19:15;14.13;;;9.25;;
42084;SDS011;27746;52.228;20.890;2023-04-24T00:21:42;12.00;;;8.63;;
42084;SDS011;27746;52.228;20.890;2023-04-24T00:24:09;13.00;;;7.93;;
42084;SDS011;27746;52.228;20.890;2023-04-24T00:26:35;15.55;;;8.75;;
42084;SDS011;27746;52.228;20.890;2023-04-24T00:29:02;16.90;;;9.43;;
42084;SDS011;27746;52.228;20.890;2023-04-24T00:31:29;11.20;;;8.02;;
42084;SDS011;27746;52.228;20.890;2023-04-24T00:33:57;16.33;;;8.95;;
42084;SDS011;27746;52.228;20.890;2023-04-24T00:36:24;14.38;;;8.43;;
42084;SDS011;27746;52.228;20.890;2023-04-24T00:38:52;13.95;;;7.68;;
42084;SDS011;27746;52.228;20.890;2023-04-24T00:41:19;14.20;;;8.65;;
42084;SDS011;27746;52.228;20.890;2023-04-24T00:43:46;12.77;;;8.02;;
42084;SDS011;27746;52.228;20.890;2023-04-24T00:46:12;14.13;;;9.02;;
42084;SDS011;27746;52.228;20.890;2023-04-24T00:48:40;15.73;;;9.13;;
42084;SDS011;27746;52.228;20.890;2023-04-24T00:51:08;13.02;;;8.32;;
42084;SDS011;27746;52.228;20.890;2023-04-24T00:53:35;13.70;;;8.80;;
42084;SDS011;27746;52.228;20.890;2023-04-24T00:56:02;13.63;;;8.38;;
42084;SDS011;27746;52.228;20.890;2023-04-24T00:58:30;13.55;;;8.95;;
42084;SDS011;27746;52.228;20.890;2023-04-24T01:00:57;20.45;;;8.40;;
42084;SDS011;27746;52.228;20.890;2023-04-24T01:03:26;14.35;;;8.52;;
42084;SDS011;27746;52.228;20.890;2023-04-24T01:05:55;11.55;;;8.43;;
42084;SDS011;27746;52.228;20.890;2023-04-24T01:08:24;13.98;;;8.30;;
42084;SDS011;27746;52.228;20.890;2023-04-24T01:10:52;11.10;;;7.80;;
42084;SDS011;27746;52.228;20.890;2023-04-24T01:13:19;14.55;;;7.75;;
42084;SDS011;27746;52.228;20.890;2023-04-24T01:15:47;13.43;;;9.02;;
42084;SDS011;27746;52.228;20.890;2023-04-24T01:18:14;12.70;;;8.13;;
42084;SDS011;27746;52.228;20.890;2023-04-24T01:20:42;14.70;;;9.05;;
42084;SDS011;27746;52.228;20.890;2023-04-24T01:23:11;13.35;;;8.25;;
42084;SDS011;27746;52.228;20.890;2023-04-24T01:25:38;16.73;;;9.60;;
42084;SDS011;27746;52.228;20.890;2023-04-24T01:28:05;17.52;;;9.23;;
42084;SDS011;27746;52.228;20.890;2023-04-24T01:30:32;13.88;;;8.98;;
42084;SDS011;27746;52.228;20.890;2023-04-24T01:32:59;16.50;;;8.48;;
42084;SDS011;27746;52.228;20.890;2023-04-24T01:35:26;14.02;;;8.27;;
42084;SDS011;27746;52.228;20.890;2023-04-24T01:37:53;15.93;;;9.63;;
42084;SDS011;27746;52.228;20.890;2023-04-24T01:40:22;13.20;;;8.57;;
42084;SDS011;27746;52.228;20.890;2023-04-24T01:42:49;19.38;;;10.10;;
42084;SDS011;27746;52.228;20.890;2023-04-24T01:45:16;11.27;;;8.63;;
42084;SDS011;27746;52.228;20.890;2023-04-24T01:47:43;14.25;;;8.43;;
42084;SDS011;27746;52.228;20.890;2023-04-24T01:50:11;13.23;;;9.10;;
42084;SDS011;27746;52.228;20.890;2023-04-24T01:52:38;15.23;;;9.13;;
42084;SDS011;27746;52.228;20.890;2023-04-24T01:55:05;13.60;;;8.30;;
42084;SDS011;27746;52.228;20.890;2023-04-24T01:57:34;14.50;;;9.07;;
42084;SDS011;27746;52.228;20.890;2023-04-24T02:00:02;15.90;;;8.85;;
42084;SDS011;27746;52.228;20.890;2023-04-24T02:02:30;14.02;;;8.13;;
42084;SDS011;27746;52.228;20.890;2023-04-24T02:04:57;14.35;;;8.93;;
42084;SDS011;27746;52.228;20.890;2023-04-24T02:07:25;17.15;;;9.30;;
42084;SDS011;27746;52.228;20.890;2023-04-24T02:09:51;13.65;;;8.88;;
42084;SDS011;27746;52.228;20.890;2023-04-24T02:12:19;17.55;;;8.88;;
42084;SDS011;27746;52.228;20.890;2023-04-24T02:14:47;15.23;;;9.38;;
42084;SDS011;27746;52.228;20.890;2023-04-24T02:17:14;14.43;;;8.55;;
42084;SDS011;27746;52.228;20.890;2023-04-24T02:19:41;15.50;;;8.88;;
42084;SDS011;27746;52.228;20.890;2023-04-24T02:22:08;14.13;;;9.13;;
42084;SDS011;27746;52.228;20.890;2023-04-24T02:24:35;13.60;;;8.68;;
42084;SDS011;27746;52.228;20.890;2023-04-24T02:27:02;18.42;;;9.63;;
42084;SDS011;27746;52.228;20.890;2023-04-24T02:29:30;14.93;;;9.45;;
42084;SDS011;27746;52.228;20.890;2023-04-24T02:31:58;13.20;;;9.30;;
42084;SDS011;27746;52.228;20.890;2023-04-24T02:34:25;16.63;;;8.70;;
42084;SDS011;27746;52.228;20.890;2023-04-24T02:36:51;14.68;;;8.63;;
42084;SDS011;27746;52.228;20.890;2023-04-24T02:39:19;14.60;;;9.25;;
42084;SDS011;27746;52.228;20.890;2023-04-24T02:41:46;14.65;;;9.52;;
42084;SDS011;27746;52.228;20.890;2023-04-24T02:44:13;14.55;;;9.07;;
42084;SDS011;27746;52.228;20.890;2023-04-24T02:46:42;16.23;;;8.90;;
42084;SDS011;27746;52.228;20.890;2023-04-24T02:49:10;15.63;;;8.65;;
42084;SDS011;27746;52.228;20.890;2023-04-24T02:51:37;16.70;;;9.43;;
42084;SDS011;27746;52.228;20.890;2023-04-24T02:54:06;14.55;;;9.40;;
42084;SDS011;27746;52.228;20.890;2023-04-24T02:56:33;15.20;;;9.40;;
42084;SDS011;27746;52.228;20.890;2023-04-24T02:59:00;13.52;;;9.10;;
42084;SDS011;27746;52.228;20.890;2023-04-24T03:01:27;16.23;;;9.60;;
42084;SDS011;27746;52.228;20.890;2023-04-24T03:03:54;17.05;;;9.57;;
42084;SDS011;27746;52.228;20.890;2023-04-24T03:06:22;15.98;;;8.98;;
42084;SDS011;27746;52.228;20.890;2023-04-24T03:08:49;15.55;;;8.73;;
42084;SDS011;27746;52.228;20.890;2023-04-24T03:11:16;15.15;;;9.45;;
42084;SDS011;27746;52.228;20.890;2023-04-24T03:13:43;16.10;;;9.70;;
42084;SDS011;27746;52.228;20.890;2023-04-24T03:16:10;13.73;;;8.48;;
42084;SDS011;27746;52.228;20.890;2023-04-24T03:18:37;16.42;;;9.18;;
42084;SDS011;27746;52.228;20.890;2023-04-24T03:21:04;16.98;;;9.68;;
42084;SDS011;27746;52.228;20.890;2023-04-24T03:23:32;13.95;;;8.93;;
42084;SDS011;27746;52.228;20.890;2023-04-24T03:25:59;14.75;;;9.20;;
42084;SDS011;27746;52.228;20.890;2023-04-24T03:28:27;12.95;;;8.73;;
42084;SDS011;27746;52.228;20.890;2023-04-24T03:30:54;17.42;;;8.95;;
42084;SDS011;27746;52.228;20.890;2023-04-24T03:33:21;14.48;;;8.75;;
42084;SDS011;27746;52.228;20.890;2023-04-24T03:35:48;16.17;;;9.20;;
42084;SDS011;27746;52.228;20.890;2023-04-24T03:38:15;15.15;;;9.80;;
42084;SDS011;27746;52.228;20.890;2023-04-24T03:40:43;15.15;;;9.55;;
42084;SDS011;27746;52.228;20.890;2023-04-24T03:43:10;14.85;;;8.95;;
42084;SDS011;27746;52.228;20.890;2023-04-24T03:45:38;14.00;;;8.50;;
42084;SDS011;27746;52.228;20.890;2023-04-24T03:48:05;14.50;;;8.73;;
42084;SDS011;27746;52.228;20.890;2023-04-24T03:50:32;19.42;;;8.88;;
42084;SDS011;27746;52.228;20.890;2023-04-24T03:52:59;15.52;;;9.63;;
42084;SDS011;27746;52.228;20.890;2023-04-24T03:55:26;14.73;;;8.90;;
42084;SDS011;27746;52.228;20.890;2023-04-24T03:57:54;15.23;;;8.70;;
42084;SDS011;27746;52.228;20.890;2023-04-24T04:00:21;13.55;;;7.90;;
42084;SDS011;27746;52.228;20.890;2023-04-24T04:02:48;16.52;;;8.32;;
42084;SDS011;27746;52.228;20.890;2023-04-24T04:05:15;13.88;;;9.18;;
42084;SDS011;27746;52.228;20.890;2023-04-24T04:07:43;16.42;;;10.43;;
42084;SDS011;27746;52.228;20.890;2023-04-24T04:10:10;13.30;;;8.65;;
42084;SDS011;27746;52.228;20.890;2023-04-24T04:12:37;12.30;;;7.50;;
42084;SDS011;27746;52.228;20.890;2023-04-24T04:15:06;14.55;;;8.35;;
42084;SDS011;27746;52.228;20.890;2023-04-24T04:17:33;14.05;;;9.02;;
42084;SDS011;27746;52.228;20.890;2023-04-24T04:20:00;14.80;;;8.95;;
42084;SDS011;27746;52.228;20.890;2023-04-24T04:22:32;16.00;;;8.65;;
42084;SDS011;27746;52.228;20.890;2023-04-24T04:24:59;12.85;;;8.68;;
42084;SDS011;27746;52.228;20.890;2023-04-24T04:27:25;16.50;;;8.23;;
42084;SDS011;27746;52.228;20.890;2023-04-24T04:29:54;15.10;;;8.93;;
42084;SDS011;27746;52.228;20.890;2023-04-24T04:32:23;17.88;;;9.77;;
42084;SDS011;27746;52.228;20.890;2023-04-24T04:34:49;25.35;;;13.88;;
42084;SDS011;27746;52.228;20.890;2023-04-24T04:37:18;12.00;;;8.27;;
42084;SDS011;27746;52.228;20.890;2023-04-24T04:39:45;14.65;;;9.23;;
42084;SDS011;27746;52.228;20.890;2023-04-24T04:42:12;31.80;;;10.93;;
42084;SDS011;27746;52.228;20.890;2023-04-24T04:44:40;16.83;;;9.00;;
42084;SDS011;27746;52.228;20.890;2023-04-24T04:47:07;15.75;;;9.48;;
42084;SDS011;27746;52.228;20.890;2023-04-24T04:49:37;14.95;;;8.48;;
42084;SDS011;27746;52.228;20.890;2023-04-24T04:52:04;14.52;;;9.40;;
42084;SDS011;27746;52.228;20.890;2023-04-24T04:54:31;17.40;;;9.63;;
42084;SDS011;27746;52.228;20.890;2023-04-24T04:56:58;15.18;;;9.45;;
42084;SDS011;27746;52.228;20.890;2023-04-24T04:59:25;20.60;;;9.50;;
42084;SDS011;27746;52.228;20.890;2023-04-24T05:01:52;14.93;;;9.40;;
42084;SDS011;27746;52.228;20.890;2023-04-24T05:04:20;17.50;;;8.75;;
42084;SDS011;27746;52.228;20.890;2023-04-24T05:06:48;16.63;;;9.50;;
42084;SDS011;27746;52.228;20.890;2023-04-24T05:09:16;16.95;;;9.18;;
42084;SDS011;27746;52.228;20.890;2023-04-24T05:11:43;23.25;;;10.07;;
42084;SDS011;27746;52.228;20.890;2023-04-24T05:14:09;13.60;;;7.93;;
42084;SDS011;27746;52.228;20.890;2023-04-24T05:16:37;16.45;;;8.32;;
42084;SDS011;27746;52.228;20.890;2023-04-24T05:19:05;19.30;;;9.30;;
42084;SDS011;27746;52.228;20.890;2023-04-24T05:21:32;15.90;;;9.00;;
42084;SDS011;27746;52.228;20.890;2023-04-24T05:24:00;16.08;;;9.02;;
42084;SDS011;27746;52.228;20.890;2023-04-24T05:26:27;16.10;;;8.75;;
42084;SDS011;27746;52.228;20.890;2023-04-24T05:28:54;20.48;;;10.00;;
42084;SDS011;27746;52.228;20.890;2023-04-24T05:31:21;18.33;;;9.27;;
42084;SDS011;27746;52.228;20.890;2023-04-24T05:33:48;14.50;;;8.38;;
42084;SDS011;27746;52.228;20.890;2023-04-24T05:36:15;17.70;;;9.68;;
42084;SDS011;27746;52.228;20.890;2023-04-24T05:38:41;14.75;;;9.10;;
42084;SDS011;27746;52.228;20.890;2023-04-24T05:41:10;15.20;;;8.93;;
42084;SDS011;27746;52.228;20.890;2023-04-24T05:43:37;24.45;;;9.70;;
42084;SDS011;27746;52.228;20.890;2023-04-24T05:46:04;13.75;;;9.13;;
42084;SDS011;27746;52.228;20.890;2023-04-24T05:48:31;16.85;;;8.95;;
42084;SDS011;27746;52.228;20.890;2023-04-24T05:50:58;16.13;;;9.40;;
42084;SDS011;27746;52.228;20.890;2023-04-24T05:53:24;16.10;;;8.90;;
42084;SDS011;27746;52.228;20.890;2023-04-24T05:55:53;16.42;;;9.02;;
42084;SDS011;27746;52.228;20.890;2023-04-24T05:58:22;18.83;;;10.07;;
42084;SDS011;27746;52.228;20.890;2023-04-24T06:00:48;32.42;;;9.68;;
42084;SDS011;27746;52.228;20.890;2023-04-24T06:03:16;22.10;;;9.68;;
42084;SDS011;27746;52.228;20.890;2023-04-24T06:05:43;24.35;;;9.35;;
42084;SDS011;27746;52.228;20.890;2023-04-24T06:08:10;21.25;;;9.38;;
42084;SDS011;27746;52.228;20.890;2023-04-24T06:10:36;15.50;;;8.48;;
42084;SDS011;27746;52.228;20.890;2023-04-24T06:13:03;18.33;;;8.52;;
42084;SDS011;27746;52.228;20.890;2023-04-24T06:15:31;32.42;;;11.07;;
42084;SDS011;27746;52.228;20.890;2023-04-24T06:17:59;14.90;;;8.20;;
42084;SDS011;27746;52.228;20.890;2023-04-24T06:20:26;20.23;;;10.40;;
42084;SDS011;27746;52.228;20.890;2023-04-24T06:22:53;17.38;;;8.45;;
42084;SDS011;27746;52.228;20.890;2023-04-24T06:25:20;21.42;;;8.65;;
42084;SDS011;27746;52.228;20.890;2023-04-24T06:27:47;17.52;;;8.13;;
42084;SDS011;27746;52.228;20.890;2023-04-24T06:30:15;13.30;;;7.93;;
42084;SDS011;27746;52.228;20.890;2023-04-24T06:32:43;12.98;;;7.88;;
42084;SDS011;27746;52.228;20.890;2023-04-24T06:35:10;15.57;;;7.25;;
42084;SDS011;27746;52.228;20.890;2023-04-24T06:37:38;19.58;;;8.02;;
42084;SDS011;27746;52.228;20.890;2023-04-24T06:40:05;16.00;;;8.13;;
42084;SDS011;27746;52.228;20.890;2023-04-24T06:42:33;17.70;;;7.57;;
42084;SDS011;27746;52.228;20.890;2023-04-24T06:45:00;18.20;;;8.32;;
42084;SDS011;27746;52.228;20.890;2023-04-24T06:47:27;14.73;;;8.38;;
42084;SDS011;27746;52.228;20.890;2023-04-24T06:49:56;18.45;;;7.90;;
42084;SDS011;27746;52.228;20.890;2023-04-24T06:52:23;11.00;;;6.88;;
42084;SDS011;27746;52.228;20.890;2023-04-24T06:54:50;16.92;;;7.07;;
42084;SDS011;27746;52.228;20.890;2023-04-24T06:57:17;19.42;;;7.78;;
42084;SDS011;27746;52.228;20.890;2023-04-24T06:59:44;15.35;;;7.53;;
42084;SDS011;27746;52.228;20.890;2023-04-24T07:02:11;18.20;;;8.45;;
42084;SDS011;27746;52.228;20.890;2023-04-24T07:04:38;23.60;;;9.38;;
42084;SDS011;27746;52.228;20.890;2023-04-24T07:07:06;16.67;;;7.70;;
42084;SDS011;27746;52.228;20.890;2023-04-24T07:09:34;22.63;;;7.85;;
42084;SDS011;27746;52.228;20.890;2023-04-24T07:12:03;16.70;;;8.10;;
42084;SDS011;27746;52.228;20.890;2023-04-24T07:14:30;16.42;;;7.43;;
42084;SDS011;27746;52.228;20.890;2023-04-24T07:16:57;15.50;;;6.93;;
42084;SDS011;27746;52.228;20.890;2023-04-24T07:19:24;23.80;;;7.25;;
42084;SDS011;27746;52.228;20.890;2023-04-24T07:21:51;13.40;;;7.05;;
42084;SDS011;27746;52.228;20.890;2023-04-24T07:24:20;20.20;;;7.40;;
42084;SDS011;27746;52.228;20.890;2023-04-24T07:26:48;18.30;;;6.85;;
42084;SDS011;27746;52.228;20.890;2023-04-24T07:29:18;14.85;;;6.65;;
42084;SDS011;27746;52.228;20.890;2023-04-24T07:31:46;21.30;;;8.75;;
42084;SDS011;27746;52.228;20.890;2023-04-24T07:34:12;13.32;;;7.90;;
42084;SDS011;27746;52.228;20.890;2023-04-24T07:36:40;15.80;;;7.07;;
42084;SDS011;27746;52.228;20.890;2023-04-24T07:39:07;17.48;;;7.55;;
42084;SDS011;27746;52.228;20.890;2023-04-24T07:41:35;17.30;;;7.85;;
42084;SDS011;27746;52.228;20.890;2023-04-24T07:44:02;11.27;;;7.30;;
42084;SDS011;27746;52.228;20.890;2023-04-24T07:46:29;12.93;;;7.75;;
42084;SDS011;27746;52.228;20.890;2023-04-24T07:48:56;14.88;;;7.38;;
42084;SDS011;27746;52.228;20.890;2023-04-24T07:51:24;13.45;;;7.55;;
42084;SDS011;27746;52.228;20.890;2023-04-24T07:53:52;15.05;;;8.05;;
42084;SDS011;27746;52.228;20.890;2023-04-24T07:56:19;20.42;;;7.00;;
42084;SDS011;27746;52.228;20.890;2023-04-24T07:58:48;17.88;;;7.10;;
42084;SDS011;27746;52.228;20.890;2023-04-24T08:01:15;17.38;;;7.80;;
42084;SDS011;27746;52.228;20.890;2023-04-24T08:03:42;17.27;;;6.80;;
42084;SDS011;27746;52.228;20.890;2023-04-24T08:06:09;16.73;;;7.28;;
42084;SDS011;27746;52.228;20.890;2023-04-24T08:08:35;14.23;;;6.95;;
42084;SDS011;27746;52.228;20.890;2023-04-24T08:11:02;14.02;;;8.02;;
42084;SDS011;27746;52.228;20.890;2023-04-24T08:13:29;15.05;;;6.90;;
42084;SDS011;27746;52.228;20.890;2023-04-24T08:15:58;25.70;;;7.55;;
42084;SDS011;27746;52.228;20.890;2023-04-24T08:18:24;17.52;;;6.82;;
42084;SDS011;27746;52.228;20.890;2023-04-24T08:20:51;14.32;;;7.03;;
42084;SDS011;27746;52.228;20.890;2023-04-24T08:23:18;11.73;;;6.40;;
42084;SDS011;27746;52.228;20.890;2023-04-24T08:25:45;14.95;;;6.68;;
42084;SDS011;27746;52.228;20.890;2023-04-24T08:28:12;13.55;;;7.55;;
42084;SDS011;27746;52.228;20.890;2023-04-24T08:30:45;14.73;;;7.60;;
42084;SDS011;27746;52.228;20.890;2023-04-24T08:33:13;15.38;;;7.18;;
42084;SDS011;27746;52.228;20.890;2023-04-24T08:35:42;13.02;;;7.43;;
42084;SDS011;27746;52.228;20.890;2023-04-24T08:38:09;15.23;;;8.75;;
42084;SDS011;27746;52.228;20.890;2023-04-24T08:40:36;17.35;;;8.15;;
42084;SDS011;27746;52.228;20.890;2023-04-24T08:43:04;16.15;;;7.80;;
42084;SDS011;27746;52.228;20.890;2023-04-24T08:45:31;13.38;;;7.68;;
42084;SDS011;27746;52.228;20.890;2023-04-24T08:47:59;17.58;;;7.80;;
42084;SDS011;27746;52.228;20.890;2023-04-24T08:50:28;22.75;;;7.75;;
42084;SDS011;27746;52.228;20.890;2023-04-24T08:52:55;27.40;;;8.52;;
42084;SDS011;27746;52.228;20.890;2023-04-24T08:55:23;16.65;;;7.53;;
42084;SDS011;27746;52.228;20.890;2023-04-24T08:57:51;24.17;;;9.63;;
42084;SDS011;27746;52.228;20.890;2023-04-24T09:00:19;18.80;;;7.30;;
42084;SDS011;27746;52.228;20.890;2023-04-24T09:02:47;19.55;;;8.35;;
42084;SDS011;27746;52.228;20.890;2023-04-24T09:05:16;16.92;;;7.05;;
42084;SDS011;27746;52.228;20.890;2023-04-24T09:07:45;16.65;;;7.07;;
42084;SDS011;27746;52.228;20.890;2023-04-24T09:10:19;13.20;;;6.40;;
42084;SDS011;27746;52.228;20.890;2023-04-24T09:12:51;15.35;;;6.90;;
42084;SDS011;27746;52.228;20.890;2023-04-24T09:15:18;15.77;;;5.72;;
42084;SDS011;27746;52.228;20.890;2023-04-24T09:17:45;16.77;;;5.75;;
42084;SDS011;27746;52.228;20.890;2023-04-24T09:20:12;15.43;;;6.18;;
42084;SDS011;27746;52.228;20.890;2023-04-24T09:22:39;13.40;;;5.70;;
42084;SDS011;27746;52.228;20.890;2023-04-24T09:25:08;12.45;;;6.20;;
42084;SDS011;27746;52.228;20.890;2023-04-24T09:27:38;14.35;;;6.15;;
42084;SDS011;27746;52.228;20.890;2023-04-24T09:30:09;15.40;;;7.13;;
42084;SDS011;27746;52.228;20.890;2023-04-24T09:32:36;9.65;;;5.88;;
42084;SDS011;27746;52.228;20.890;2023-04-24T09:35:07;9.98;;;5.63;;
42084;SDS011;27746;52.228;20.890;2023-04-24T09:37:36;17.53;;;7.03;;
42084;SDS011;27746;52.228;20.890;2023-04-24T09:40:12;13.55;;;6.80;;
42084;SDS011;27746;52.228;20.890;2023-04-24T09:42:43;16.88;;;6.50;;
42084;SDS011;27746;52.228;20.890;2023-04-24T09:45:11;10.23;;;5.35;;
42084;SDS011;27746;52.228;20.890;2023-04-24T09:47:38;9.07;;;5.40;;
42084;SDS011;27746;52.228;20.890;2023-04-24T09:50:09;11.65;;;6.40;;
42084;SDS011;27746;52.228;20.890;2023-04-24T09:52:39;10.82;;;6.30;;
42084;SDS011;27746;52.228;20.890;2023-04-24T09:55:11;15.80;;;5.88;;
42084;SDS011;27746;52.228;20.890;2023-04-24T09:57:51;13.27;;;5.72;;
42084;SDS011;27746;52.228;20.890;2023-04-24T10:00:22;9.90;;;5.65;;
42084;SDS011;27746;52.228;20.890;2023-04-24T10:02:50;10.75;;;6.38;;
42084;SDS011;27746;52.228;20.890;2023-04-24T10:05:22;11.00;;;6.05;;
42084;SDS011;27746;52.228;20.890;2023-04-24T10:07:50;9.82;;;5.95;;
42084;SDS011;27746;52.228;20.890;2023-04-24T10:10:19;17.70;;;5.78;;
42084;SDS011;27746;52.228;20.890;2023-04-24T10:12:46;23.00;;;7.13;;
42084;SDS011;27746;52.228;20.890;2023-04-24T10:15:13;17.17;;;6.18;;
42084;SDS011;27746;52.228;20.890;2023-04-24T10:17:45;12.20;;;6.63;;
42084;SDS011;27746;52.228;20.890;2023-04-24T10:20:17;9.98;;;5.65;;
42084;SDS011;27746;52.228;20.890;2023-04-24T10:22:45;15.73;;;5.45;;
42084;SDS011;27746;52.228;20.890;2023-04-24T10:25:14;9.95;;;5.05;;
42084;SDS011;27746;52.228;20.890;2023-04-24T10:27:44;8.57;;;4.68;;
42084;SDS011;27746;52.228;20.890;2023-04-24T10:30:12;89.10;;;15.90;;
42084;SDS011;27746;52.228;20.890;2023-04-24T10:32:40;26.00;;;7.50;;
42084;SDS011;27746;52.228;20.890;2023-04-24T10:35:07;88.88;;;14.27;;
42084;SDS011;27746;52.228;20.890;2023-04-24T10:37:34;72.40;;;9.38;;
42084;SDS011;27746;52.228;20.890;2023-04-24T10:40:04;18.90;;;7.13;;
42084;SDS011;27746;52.228;20.890;2023-04-24T10:42:33;10.73;;;5.38;;
42084;SDS011;27746;52.228;20.890;2023-04-24T10:45:05;23.45;;;7.18;;
42084;SDS011;27746;52.228;20.890;2023-04-24T10:47:39;31.63;;;6.63;;
42084;SDS011;27746;52.228;20.890;2023-04-24T10:50:07;21.98;;;7.07;;
42084;SDS011;27746;52.228;20.890;2023-04-24T10:52:44;15.80;;;5.35;;
42084;SDS011;27746;52.228;20.890;2023-04-24T10:55:12;10.68;;;5.32;;
42084;SDS011;27746;52.228;20.890;2023-04-24T10:57:39;14.15;;;5.50;;
42084;SDS011;27746;52.228;20.890;2023-04-24T11:00:13;9.77;;;5.35;;
42084;SDS011;27746;52.228;20.890;2023-04-24T11:02:42;36.92;;;9.93;;
42084;SDS011;27746;52.228;20.890;2023-04-24T11:05:14;50.35;;;9.20;;
42084;SDS011;27746;52.228;20.890;2023-04-24T11:10:38;46.50;;;9.45;;
42084;SDS011;27746;52.228;20.890;2023-04-24T11:13:06;72.13;;;11.13;;
42084;SDS011;27746;52.228;20.890;2023-04-24T11:15:35;8.93;;;5.03;;
42084;SDS011;27746;52.228;20.890;2023-04-24T11:18:02;24.00;;;6.78;;
42084;SDS011;27746;52.228;20.890;2023-04-24T11:20:41;14.23;;;6.25;;
42084;SDS011;27746;52.228;20.890;2023-04-24T11:23:09;11.85;;;4.95;;
42084;SDS011;27746;52.228;20.890;2023-04-24T11:25:39;36.88;;;7.63;;
42084;SDS011;27746;52.228;20.890;2023-04-24T11:28:06;16.17;;;5.72;;
42084;SDS011;27746;52.228;20.890;2023-04-24T11:30:33;17.48;;;5.63;;
42084;SDS011;27746;52.228;20.890;2023-04-24T11:33:04;17.20;;;5.47;;
42084;SDS011;27746;52.228;20.890;2023-04-24T11:35:34;33.40;;;7.18;;
42084;SDS011;27746;52.228;20.890;2023-04-24T11:38:03;15.53;;;5.70;;
42084;SDS011;27746;52.228;20.890;2023-04-24T11:40:31;14.10;;;6.15;;
42084;SDS011;27746;52.228;20.890;2023-04-24T11:42:59;24.25;;;7.47;;
42084;SDS011;27746;52.228;20.890;2023-04-24T11:45:27;16.02;;;6.93;;
42084;SDS011;27746;52.228;20.890;2023-04-24T11:47:54;46.95;;;9.57;;
42084;SDS011;27746;52.228;20.890;2023-04-24T11:50:24;13.73;;;5.45;;
42084;SDS011;27746;52.228;20.890;2023-04-24T11:52:52;10.45;;;5.88;;
42084;SDS011;27746;52.228;20.890;2023-04-24T11:55:24;16.10;;;5.90;;
42084;SDS011;27746;52.228;20.890;2023-04-24T11:57:52;52.50;;;9.25;;
42084;SDS011;27746;52.228;20.890;2023-04-24T12:00:22;17.67;;;5.85;;
42084;SDS011;27746;52.228;20.890;2023-04-24T12:02:49;11.65;;;5.28;;
42084;SDS011;27746;52.228;20.890;2023-04-24T12:05:20;13.75;;;5.78;;
42084;SDS011;27746;52.228;20.890;2023-04-24T12:07:49;16.45;;;5.45;;
42084;SDS011;27746;52.228;20.890;2023-04-24T12:10:19;13.65;;;6.07;;
42084;SDS011;27746;52.228;20.890;2023-04-24T12:12:46;8.88;;;4.72;;
42084;SDS011;27746;52.228;20.890;2023-04-24T12:15:15;13.85;;;5.13;;
42084;SDS011;27746;52.228;20.890;2023-04-24T12:17:43;18.52;;;5.40;;
42084;SDS011;27746;52.228;20.890;2023-04-24T12:20:11;11.95;;;6.55;;
42084;SDS011;27746;52.228;20.890;2023-04-24T12:22:44;11.32;;;5.10;;
42084;SDS011;27746;52.228;20.890;2023-04-24T12:25:12;13.60;;;5.93;;
42084;SDS011;27746;52.228;20.890;2023-04-24T12:27:40;18.35;;;6.28;;
42084;SDS011;27746;52.228;20.890;2023-04-24T12:30:09;14.88;;;5.40;;
42084;SDS011;27746;52.228;20.890;2023-04-24T12:32:42;8.67;;;5.13;;
42084;SDS011;27746;52.228;20.890;2023-04-24T12:35:10;14.98;;;5.47;;
42084;SDS011;27746;52.228;20.890;2023-04-24T12:37:37;10.10;;;5.72;;
42084;SDS011;27746;52.228;20.890;2023-04-24T12:40:07;10.75;;;5.38;;
42084;SDS011;27746;52.228;20.890;2023-04-24T12:42:35;11.98;;;5.05;;
42084;SDS011;27746;52.228;20.890;2023-04-24T12:45:08;17.27;;;6.18;;
42084;SDS011;27746;52.228;20.890;2023-04-24T12:47:37;65.45;;;8.77;;
42084;SDS011;27746;52.228;20.890;2023-04-24T12:50:05;98.18;;;11.85;;
42084;SDS011;27746;52.228;20.890;2023-04-24T12:52:32;51.42;;;6.82;;
42084;SDS011;27746;52.228;20.890;2023-04-24T12:54:59;27.02;;;5.35;;
42084;SDS011;27746;52.228;20.890;2023-04-24T12:57:29;17.73;;;3.80;;
42084;SDS011;27746;52.228;20.890;2023-04-24T12:59:57;28.98;;;6.22;;
42084;SDS011;27746;52.228;20.890;2023-04-24T13:02:24;15.23;;;3.90;;
42084;SDS011;27746;52.228;20.890;2023-04-24T13:04:54;27.05;;;3.88;;
42084;SDS011;27746;52.228;20.890;2023-04-24T13:07:21;17.52;;;3.88;;
42084;SDS011;27746;52.228;20.890;2023-04-24T13:09:48;14.23;;;4.18;;
42084;SDS011;27746;52.228;20.890;2023-04-24T13:12:17;9.05;;;2.88;;
42084;SDS011;27746;52.228;20.890;2023-04-24T13:14:46;9.93;;;3.67;;
42084;SDS011;27746;52.228;20.890;2023-04-24T13:17:14;9.00;;;3.40;;
42084;SDS011;27746;52.228;20.890;2023-04-24T13:19:42;30.35;;;4.68;;
42084;SDS011;27746;52.228;20.890;2023-04-24T13:22:10;18.02;;;3.50;;
42084;SDS011;27746;52.228;20.890;2023-04-24T13:24:38;8.77;;;3.20;;
42084;SDS011;27746;52.228;20.890;2023-04-24T13:27:06;8.45;;;3.20;;
42084;SDS011;27746;52.228;20.890;2023-04-24T13:29:33;7.63;;;3.22;;
42084;SDS011;27746;52.228;20.890;2023-04-24T13:32:01;8.95;;;3.80;;
42084;SDS011;27746;52.228;20.890;2023-04-24T13:34:29;10.82;;;3.60;;
42084;SDS011;27746;52.228;20.890;2023-04-24T13:36:56;13.45;;;4.00;;
42084;SDS011;27746;52.228;20.890;2023-04-24T13:39:24;9.63;;;3.22;;
42084;SDS011;27746;52.228;20.890;2023-04-24T13:41:51;17.30;;;4.10;;
42084;SDS011;27746;52.228;20.890;2023-04-24T13:44:19;9.35;;;3.35;;
42084;SDS011;27746;52.228;20.890;2023-04-24T13:46:47;13.75;;;4.07;;
42084;SDS011;27746;52.228;20.890;2023-04-24T13:49:17;4.68;;;3.03;;
42084;SDS011;27746;52.228;20.890;2023-04-24T13:51:44;9.57;;;3.78;;
42084;SDS011;27746;52.228;20.890;2023-04-24T13:54:11;14.85;;;4.95;;
42084;SDS011;27746;52.228;20.890;2023-04-24T13:56:38;8.02;;;3.42;;
42084;SDS011;27746;52.228;20.890;2023-04-24T13:59:06;5.18;;;3.10;;
42084;SDS011;27746;52.228;20.890;2023-04-24T14:01:33;8.18;;;3.17;;
42084;SDS011;27746;52.228;20.890;2023-04-24T14:04:01;9.30;;;3.67;;
42084;SDS011;27746;52.228;20.890;2023-04-24T14:06:29;6.72;;;3.35;;
42084;SDS011;27746;52.228;20.890;2023-04-24T14:08:56;4.88;;;3.40;;
42084;SDS011;27746;52.228;20.890;2023-04-24T14:11:23;8.05;;;3.08;;
42084;SDS011;27746;52.228;20.890;2023-04-24T14:13:50;7.93;;;3.67;;
42084;SDS011;27746;52.228;20.890;2023-04-24T14:16:16;6.93;;;3.83;;
42084;SDS011;27746;52.228;20.890;2023-04-24T14:18:43;11.45;;;3.35;;
42084;SDS011;27746;52.228;20.890;2023-04-24T14:21:10;19.88;;;4.35;;
42084;SDS011;27746;52.228;20.890;2023-04-24T14:23:38;14.30;;;4.22;;
42084;SDS011;27746;52.228;20.890;2023-04-24T14:26:05;9.15;;;3.78;;
42084;SDS011;27746;52.228;20.890;2023-04-24T14:28:32;7.55;;;3.50;;
42084;SDS011;27746;52.228;20.890;2023-04-24T14:30:59;7.20;;;3.28;;